Forside
METAR-TAF:

METAR-TAF

Lufthavne :

Aktau, Kasakhstan

Breddekreds: 43-52-12N, længdekreds: 051-06E, højde: 22 m

Aktuelle vejr

Denne rapport blev lavet for 33 minutter siden, kl. 12:00 UTC
Vind 16 kt fra vestnordvest, varierende mellem vest og nordnordvest
Temperatur 21°C
Fugtighed 53%
Tryk 1018 hPa
Sigt 10 km eller mere
ingen skyer under 1500m og ingen cumulonimbus

METAR: UATE 191200Z 30008MPS 270V330 CAVOK 21/11 Q1018 R30/0///70 NOSIG RMK QFE762/1016

Tid: 17:33 (12:33 UTC)

Vejrudsigter

Denne rapport blev lavet for 1 time og 27 minutter siden, kl. 11:06 UTC
Foreløbig gælder fra 19 på 12 UTC til 20 på 12 UTC
Vind 14 kt fra vestnordvest med vindstød på up til 25 kt
Sigt 10 km eller mere
Spredte skyer i en højde af 3000 ft, Cumulonimbus.

TAF: UATE 191106Z 1912/2012 30007G13MPS 9999 SCT030CB TX22/2009Z TN12/2002Z

Vejrobservationer og prognoser fra mere end 4000 lufthavne (METAR og TAF).

De gule og røde prikker repræsenterer de meteorologiske stationer.

Flyt musen over at se navnet på stationen.

Så klik over at se vejr observationer og prognoser.

At skifte det kort: Klik på de grønne knapper med et sort kors for at zoome ind; på den grønne knap med en bindestreg for at zoome ud; eller på de grønne pile for tilstødende kort.


METAR-TAF: